Lillington, North Carolina
Current Conditions -  °F | °C
As of 11:35 PM on Saturday 25 Oct 2014 (Local Time) from KHRJ Reporting Station
Clear Clear  
Wind Chill: 52°   Ceiling: Unl
Heat Index: 52°   Visibility: 10mi
Dew Point: 47°   Wind: 0mph
Humidity: 82%   Direction: NA
Pressure: 29.89"   Gusts: NA
Location:  35.4°N, 78.82°W
Report Text: KHRJ 260335Z AUTO 00000KT 10SM CLR 11/08 A2989 RMK AO2 T01130084
Loading
Personal Weather Stations






























Interactive Weather Map
Tropical Storm Tracking
New forecast layout! Learn more

10-Day Weather Forecast

Advertisements
Track Severe Weather on mobile